Terminal Aerodrome Forecast
Issued by NWS Jacksonville, FL

Home | Current Version | Previous Version | Text Only | Print | Product List | Glossary On
Versions: 1 2 3 4 5 6 7 8 9 10 11 12 13 14 15 16 17 18 19 20 21
688
FTUS42 KJAX 061408 AAB
TAFGNV
TAF AMD
KGNV 061408Z 0614/0712 24012G20KT 5SM -SHRA SCT010 BKN025 OVC040
      TEMPO 0614/0616 2SM +SHRA BKN010 OVC030
     FM061700 25015G25KT P6SM SCT035
     FM062300 24008KT P6SM SKC=

USA.gov is the U.S. government's official web portal to all federal, state and local government web resources and services.